Terminal Aerodrome Forecast
Issued by NWS Cleveland, OH

Home | Current Version | Previous Version | Graphics & Text | Print | Product List | Glossary Off
Versions: 1 2 3 4 5 6 7 8 9 10 11 12 13 14

000
FTUS41 KCLE 291134
TAFYNG
TAF
KYNG 291134Z 2912/3012 14004KT P6SM SCT100 BKN250
     FM291800 21006KT P6SM SCT040 BKN250
     FM300200 25006KT P6SM SCT060 BKN250=

USA.gov is the U.S. government's official web portal to all federal, state and local government web resources and services.